Peterstown, WV (24963)

4:05 PM EDT on July 01, 2015 (GMT -0400)
ADAIR RIDGE ROAD | | Change Station
CLOSE
Current Station
Personal Weather Station
Location: Ballard, WV
Elevation: 2053 ft
Nearby Weather Stations

Elev 2053 ft 37.50 °N, 80.78 °W | Updated 1 second ago

Mostly Cloudy
Mostly Cloudy
83.9 °F
Feels Like 85 °F
N
0.4
Wind Variable Wind from ENE
Gusts 0.4 mph

Today
High -- | Low -- °F
--% Chance of Precip.
Yesterday
High -- | Low -- °F
Precip. -- in
6:05 AM 8:47 PM
Full, 100% visible
Pressure 30.00 in
Visibility 7.0 miles
Clouds Scattered Clouds 5000 ft
Scattered Clouds 6000 ft
Heat Index 85 °F
Dew Point 63 °F
Humidity 49%
Rainfall 0.00 in
Snow Depth Not available.
UV 7 out of 12
Pollen 3.40 out of 12
Air Quality Not available.
Flu Activity Not available.
METAR KPSK 011955Z AUTO 31006KT 7SM SCT050 SCT060 28/16 A3000 RMK AO2 T02770163

More Conditions Fewer Conditions

Pressure 30.00 in
Visibility 7.0 miles
Clouds Scattered Clouds 5000 ft
Scattered Clouds 6000 ft
Heat Index 85 °F
Dew Point 63 °F
Humidity 49%
Rainfall 0.00 in
Snow Depth Not available.
UV 7 out of 12
Pollen 3.40 out of 12
Air Quality Not available.
Flu Activity Not available.
METAR KPSK 011955Z AUTO 31006KT 7SM SCT050 SCT060 28/16 A3000 RMK AO2 T02770163

More Conditions Fewer Conditions

10-Day Weather Forecast

×

Almanac

Astronomy

Jul. 01, 2015 Rise Set
Actual Time
Civil Twilight
Nautical Twilight
Astronomical Twilight
Moon
Length of Visible Light
Length of Day
Tomorrow will be .
, % of the Moon is Illuminated

Today's Extremes

State Highs State Lows

Community

WunderPhotos

Upload Photos

1,834,269 photos uploaded!

WunderBlogs® & News

Nearby

Air Quality

  Air Quality AQ Index Pollutant
Not available.

Snow Depth

Station Depth Elevation

Earthquake Activity

City Distance Mag. Time & Date
Minimum magnitude displayed is 2.5.

Coastal Water Temperatures

Place Temperature

Stations

Nearby Weather Stations

Station Location Temp. Windchill Dew Point Humidity Wind Precip. Elev Updated Type